首页
METAR-TAF:

METAR-TAF

机场 :

斯德哥爾摩-阿蘭達, 瑞典

斯德哥爾摩-阿蘭達機場

纬度: 59-39N, 经度: 017-57E, 海拔: 38米

当前天气观测

该预报发布于23分钟前的01:20 UTC
风速5节,风向北转东北
温度 -5°C
湿度 93%
气压 998 hPa
能见度10公里或以上
1500米以下无云,无积雨云

METAR: ESSA 190120Z 02005KT CAVOK M05/M06 Q0998 R01L/510163 R01R/510176 R08/510172 NOSIG

时间: 02:43 (01:43 UTC)

预报

该预报发布于2小时和13分钟前的23:30 UTC
预报有效从19日的 00点(UTC)到 19日的 24点(UTC)
风速8节,风向东北
能见度10公里或以上
多云层高于4500英尺

TAF: ESSA 182330Z 1900/1924 04008KT 9999 BKN045

超过4000个机场的气象观测和天气预报(METAR&TAF报告)。

可查询的气象台以黄色和红色小点在地图上表示。

将鼠标移到小点上方,可查看气象台名称。

然后点击查看天气观测和预报。

如需切换地图:点击带黑十字的绿色按钮放大地图;点击带横线的绿色按钮缩小地图;或者点击绿色箭头查看邻近地区的地图。


METAR-TAF: